Tuesday, February 20, 2018, 10:37 AM EST
Back to Local

KFAF, Fort Eustis / Felker

Location: Fort Eustis, VA, United States Lat: 37.133
Local Time: 10:37 AM EST (15:37 GMT) Lon: -76.617
Time Zone: US/Eastern Elev: 13 ft

Show me the last for .
Show Decoded

2018-02-20 08:56 METAR KFAF 201356Z 00000KT 1/2SM FG OVC002 13/13 A3046 RMK SLP318 P0000 60000
                 T01320130 52020 $ =
2018-02-20 07:56 METAR KFAF 201256Z 00000KT 1/4SM FG VV001 13/12 A3044 RMK AO2A SLP311 P0000
                 T01250123 RVRNO $ =
2018-02-20 06:56 METAR KFAF 201156Z 00000KT 1/4SM FG VV001 12/12 A3041 RMK AO2A SLP301 P0000
                 60001 70025 T01210118 10121 20115 52012 RVRNO $ =
2018-02-20 05:56 METAR KFAF 201056Z 00000KT 1/4SM FG OVC001 12/12 A3040 RMK AO2A SLP298 P0000
                 T01200117 $ =
2018-02-20 05:41 METAR KFAF 201041Z AUTO 00000KT 1 3/4SM -DZ BR OVC001 12/12 A3039 RMK AO2 SLP294
                 $ =
2018-02-20 04:56 METAR KFAF 200956Z AUTO 00000KT 1 1/4SM -DZ BR OVC001 12/12 A3039 RMK AO2 SLP294
                 P0001 T01190116 $ =
2018-02-20 03:56 METAR KFAF 200856Z AUTO 00000KT 1 1/2SM -DZ BR OVC001 12/12 A3038 RMK AO2 SLP291
                 P0000 60000 T01180115 55004 $ =
2018-02-20 03:41 METAR KFAF 200841Z AUTO 00000KT 1 5/8SM -DZ BR OVC002 12/12 A3037 RMK AO2 SLP287
                 $ =
2018-02-20 03:26 METAR KFAF 200826Z AUTO 00000KT 2 1/2SM -DZ BR OVC002 12/11 A3037 RMK AO2 VIS 2
                 1/2V3 SLP287 $ =
2018-02-20 02:56 METAR KFAF 200756Z AUTO 00000KT 9SM -DZ OVC003 12/11 A3037 RMK AO2 SLP287 P0000
                 T01170112 $ =
2018-02-20 02:26 METAR KFAF 200726Z AUTO 18003KT 10SM -DZ OVC004 12/11 A3038 RMK AO2 SLP291 $ =
2018-02-20 01:56 METAR KFAF 200656Z AUTO 19003KT 10SM -DZ OVC005 12/11 A3039 RMK AO2 SLP294 P0000
                 T01170111 $ =
2018-02-20 01:11 METAR KFAF 200611Z AUTO 16003KT 10SM -DZ OVC005 12/11 A3039 RMK AO2 OVC V BKN
                 SLP294 $ =
2018-02-20 00:56 METAR KFAF 200556Z AUTO 15003KT 10SM -DZ OVC007 12/11 A3039 RMK AO2 CIG 007V009
                 SLP294 P0000 60000 T01160110 10116 20102 50002 $ =
2018-02-19 23:56 METAR KFAF 200456Z AUTO 00000KT 10SM -DZ OVC009 12/11 A3040 RMK AO2 SLP298 P0000
                 T01150109 401180030 $ =
2018-02-19 22:56 METAR KFAF 200356Z AUTO 17003KT 10SM -DZ OVC009 11/11 A3039 RMK AO2 SLP294 P0000
                 T01140109 $ =
2018-02-19 21:56 METAR KFAF 200256Z AUTO 00000KT 10SM -DZ OVC010 11/11 A3038 RMK AO2 SLP291 P0000
                 60000 T01130108 50003 $ =
2018-02-19 20:56 METAR KFAF 200156Z AUTO 00000KT 10SM -DZ OVC011 11/11 A3039 RMK AO2 SLP294 P0000
                 T01110108 $ =
2018-02-19 19:56 METAR KFAF 200056Z AUTO 00000KT 10SM -DZ OVC012 11/10 A3038 RMK AO2 SLP291 P0000
                 T01050102 $ =
2018-02-19 19:26 METAR KFAF 200026Z AUTO 00000KT 4SM -DZ BR SCT002 OVC013 10/10 A3038 RMK AO2 CIG
                 002V013 SLP291 $ =
2018-02-19 18:56 METAR KFAF 192356Z AUTO 00000KT 2 1/2SM -DZ BR OVC002 10/10 A3038 RMK AO2 VIS
                 2V2 1/2 SLP291 P0000 60003 T01020099 10118 20102 53005 $ =
2018-02-19 18:41 METAR KFAF 192341Z AUTO 00000KT 1 3/8SM -DZ BR OVC002 11/10 A3038 RMK AO2 SLP291
                 $ =
2018-02-19 18:26 METAR KFAF 192326Z AUTO 00000KT 1 3/4SM -DZ BR OVC003 11/10 A3037 RMK AO2 SLP288
                 $ =
2018-02-19 18:11 METAR KFAF 192311Z AUTO 00000KT 1 3/8SM -DZ BR OVC003 11/10 A3037 RMK AO2 VIS
                 3/4V1 3/8 SLP288 $ =
2018-02-19 17:56 METAR KFAF 192256Z AUTO 00000KT 3/4SM -DZ BR VV002 11/10 A3037 RMK AO2 SLP288
                 P0000 T01070102 RVRNO $ =
2018-02-19 17:31 METAR KFAF 192231Z AUTO 00000KT 1SM -DZ BR VV002 11/10 A3036 RMK AO2 VIS 1V1 5/8
                 SLP284 RVRNO $ =
2018-02-19 17:26 METAR KFAF 192226Z AUTO 00000KT 1 3/8SM -DZ BR OVC002 11/11 A3036 RMK AO2 VIS 1
                 3/8V1 7/8 SLP284 $ =
2018-02-19 17:11 METAR KFAF 192211Z AUTO 30003KT 2 1/4SM -DZ BR OVC002 11/11 A3036 RMK AO2 VIS 2
                 1/4V3 SLP284 $ =
2018-02-19 16:56 METAR KFAF 192156Z AUTO 00000KT 4SM -DZ BR OVC003 11/11 A3036 RMK AO2 SLP284
                 P0000 T01120107 $ =
2018-02-19 16:41 METAR KFAF 192141Z AUTO 00000KT 4SM -DZ BR OVC003 11/11 A3036 RMK AO2 SLP284 $ =
2018-02-19 15:56 METAR KFAF 192056Z AUTO 00000KT 10SM -DZ OVC004 11/11 A3036 RMK AO2
                 DZE06RAB06E16DZB16 SLP284 P0000 60003 T01140109 56008 $ =
2018-02-19 15:11 METAR KFAF 192011Z AUTO 00000KT 10SM -RA OVC005 12/11 A3037 RMK AO2 DZE06RAB06
                 SLP288 $ =
2018-02-19 14:56 METAR KFAF 191956Z AUTO 00000KT 10SM DZ OVC006 12/11 A3036 RMK AO2 SLP284 P0001
                 T01160110 $ =
2018-02-19 14:26 METAR KFAF 191926Z AUTO 00000KT 10SM -DZ OVC006 11/11 A3036 RMK AO2 SLP284 $ =
2018-02-19 14:11 METAR KFAF 191911Z AUTO 16003KT 10SM -DZ OVC005 11/11 A3036 RMK AO2 SLP284 $ =
2018-02-19 13:56 METAR KFAF 191856Z AUTO 00000KT 8SM -DZ OVC006 11/11 A3037 RMK AO2 CIG 006V008
                 SLP288 P0002 T01120106 $ =
2018-02-19 13:26 METAR KFAF 191826Z AUTO 15005KT 10SM -DZ SCT006 OVC010 12/11 A3037 RMK AO2
                 SLP288 $ =
2018-02-19 12:56 METAR KFAF 191756Z AUTO 15006KT 10SM -DZ OVC005 12/11 A3039 RMK AO2 SLP294 P0001
                 60021 T01160110 10116 20060 57023 $ =
2018-02-19 12:11 METAR KFAF 191711Z AUTO 14004KT 10SM -DZ BKN005 OVC014 11/11 A3042 RMK AO2
                 SLP304 $ =
2018-02-19 11:56 METAR KFAF 191656Z AUTO 15004KT 10SM -DZ SCT006 OVC016 11/10 A3042 RMK AO2
                 RAE19DZB19 SLP304 P0003 T01100104 $ =
2018-02-19 10:56 METAR KFAF 191556Z AUTO 15004KT 10SM -RA FEW016 OVC031 10/09 A3045 RMK AO2
                 RAE1458DZB21E27RAB27 SLP315 P0000 T00980089 $ =

Support USWX by starting your Amazon purchase here.